sensor_id;sensor_type;location;lat;lon;timestamp;P1;durP1;ratioP1;P2;durP2;ratioP2
60370;SDS011;48550;40.588;49.684;2023-08-12T00:00:19;8.70;;;3.45;;
60370;SDS011;48550;40.588;49.684;2023-08-12T00:02:45;7.57;;;3.10;;
60370;SDS011;48550;40.588;49.684;2023-08-12T00:05:11;6.82;;;3.40;;
60370;SDS011;48550;40.588;49.684;2023-08-12T00:07:38;9.45;;;3.10;;
60370;SDS011;48550;40.588;49.684;2023-08-12T00:10:07;4.68;;;3.10;;
60370;SDS011;48550;40.588;49.684;2023-08-12T00:12:34;5.60;;;3.15;;
60370;SDS011;48550;40.588;49.684;2023-08-12T00:15:01;9.63;;;3.10;;
60370;SDS011;48550;40.588;49.684;2023-08-12T00:17:28;5.55;;;2.78;;
60370;SDS011;48550;40.588;49.684;2023-08-12T00:19:54;6.13;;;3.10;;
60370;SDS011;48550;40.588;49.684;2023-08-12T00:22:19;5.05;;;3.00;;
60370;SDS011;48550;40.588;49.684;2023-08-12T00:24:45;5.22;;;2.72;;
60370;SDS011;48550;40.588;49.684;2023-08-12T00:27:11;5.82;;;2.60;;
60370;SDS011;48550;40.588;49.684;2023-08-12T00:29:36;4.15;;;2.88;;
60370;SDS011;48550;40.588;49.684;2023-08-12T00:32:02;8.88;;;2.58;;
60370;SDS011;48550;40.588;49.684;2023-08-12T00:34:28;5.10;;;2.65;;
60370;SDS011;48550;40.588;49.684;2023-08-12T00:36:54;5.53;;;2.63;;
60370;SDS011;48550;40.588;49.684;2023-08-12T00:39:20;4.22;;;2.45;;
60370;SDS011;48550;40.588;49.684;2023-08-12T00:41:46;6.60;;;2.42;;
60370;SDS011;48550;40.588;49.684;2023-08-12T00:44:11;4.13;;;2.47;;
60370;SDS011;48550;40.588;49.684;2023-08-12T00:46:40;5.53;;;2.30;;
60370;SDS011;48550;40.588;49.684;2023-08-12T00:49:07;5.45;;;2.40;;
60370;SDS011;48550;40.588;49.684;2023-08-12T00:51:34;5.53;;;2.40;;
60370;SDS011;48550;40.588;49.684;2023-08-12T00:54:02;5.75;;;2.22;;
60370;SDS011;48550;40.588;49.684;2023-08-12T00:56:29;5.38;;;2.38;;
60370;SDS011;48550;40.588;49.684;2023-08-12T00:58:56;8.07;;;2.10;;
60370;SDS011;48550;40.588;49.684;2023-08-12T01:01:23;6.70;;;2.33;;
60370;SDS011;48550;40.588;49.684;2023-08-12T01:03:49;7.70;;;2.25;;
60370;SDS011;48550;40.588;49.684;2023-08-12T01:06:16;6.40;;;2.40;;
60370;SDS011;48550;40.588;49.684;2023-08-12T01:08:42;6.55;;;2.60;;
60370;SDS011;48550;40.588;49.684;2023-08-12T01:11:15;12.57;;;2.60;;
60370;SDS011;48550;40.588;49.684;2023-08-12T01:13:59;5.40;;;2.50;;
60370;SDS011;48550;40.588;49.684;2023-08-12T01:16:36;5.57;;;2.60;;
60370;SDS011;48550;40.588;49.684;2023-08-12T01:19:10;4.80;;;2.50;;
60370;SDS011;48550;40.588;49.684;2023-08-12T01:21:43;3.15;;;2.20;;
60370;SDS011;48550;40.588;49.684;2023-08-12T01:24:09;5.28;;;2.50;;
60370;SDS011;48550;40.588;49.684;2023-08-12T01:26:35;4.25;;;2.30;;
60370;SDS011;48550;40.588;49.684;2023-08-12T01:29:00;4.50;;;2.50;;
60370;SDS011;48550;40.588;49.684;2023-08-12T01:34:02;7.10;;;2.50;;
60370;SDS011;48550;40.588;49.684;2023-08-12T01:36:36;6.18;;;2.83;;
60370;SDS011;48550;40.588;49.684;2023-08-12T01:39:05;8.35;;;2.90;;
60370;SDS011;48550;40.588;49.684;2023-08-12T01:41:33;6.45;;;3.05;;
60370;SDS011;48550;40.588;49.684;2023-08-12T01:44:01;4.43;;;2.70;;
60370;SDS011;48550;40.588;49.684;2023-08-12T01:46:28;9.13;;;3.30;;
60370;SDS011;48550;40.588;49.684;2023-08-12T01:48:53;6.53;;;3.10;;
60370;SDS011;48550;40.588;49.684;2023-08-12T01:51:19;5.05;;;2.70;;
60370;SDS011;48550;40.588;49.684;2023-08-12T01:53:45;8.80;;;3.00;;
60370;SDS011;48550;40.588;49.684;2023-08-12T01:56:10;7.15;;;2.67;;
60370;SDS011;48550;40.588;49.684;2023-08-12T01:58:36;14.25;;;3.50;;
60370;SDS011;48550;40.588;49.684;2023-08-12T02:01:01;11.50;;;4.93;;
60370;SDS011;48550;40.588;49.684;2023-08-12T02:03:27;6.25;;;3.10;;
60370;SDS011;48550;40.588;49.684;2023-08-12T02:05:53;12.32;;;3.58;;
60370;SDS011;48550;40.588;49.684;2023-08-12T02:08:18;11.95;;;4.10;;
60370;SDS011;48550;40.588;49.684;2023-08-12T02:10:44;14.05;;;4.05;;
60370;SDS011;48550;40.588;49.684;2023-08-12T02:13:10;8.48;;;3.78;;
60370;SDS011;48550;40.588;49.684;2023-08-12T02:15:36;13.57;;;3.58;;
60370;SDS011;48550;40.588;49.684;2023-08-12T02:18:01;12.40;;;3.55;;
60370;SDS011;48550;40.588;49.684;2023-08-12T02:20:28;16.40;;;3.53;;
60370;SDS011;48550;40.588;49.684;2023-08-12T02:22:54;14.35;;;3.38;;
60370;SDS011;48550;40.588;49.684;2023-08-12T02:25:19;23.80;;;4.90;;
60370;SDS011;48550;40.588;49.684;2023-08-12T02:27:45;15.23;;;3.40;;
60370;SDS011;48550;40.588;49.684;2023-08-12T02:30:11;8.88;;;2.78;;
60370;SDS011;48550;40.588;49.684;2023-08-12T02:32:37;8.00;;;2.63;;
60370;SDS011;48550;40.588;49.684;2023-08-12T02:35:02;9.95;;;2.80;;
60370;SDS011;48550;40.588;49.684;2023-08-12T02:37:28;11.35;;;2.70;;
60370;SDS011;48550;40.588;49.684;2023-08-12T02:39:54;5.65;;;2.63;;
60370;SDS011;48550;40.588;49.684;2023-08-12T02:42:20;7.20;;;3.00;;
60370;SDS011;48550;40.588;49.684;2023-08-12T02:44:45;6.78;;;2.90;;
60370;SDS011;48550;40.588;49.684;2023-08-12T02:47:11;11.27;;;2.80;;
60370;SDS011;48550;40.588;49.684;2023-08-12T02:49:37;6.03;;;2.42;;
60370;SDS011;48550;40.588;49.684;2023-08-12T02:52:02;11.63;;;2.83;;
60370;SDS011;48550;40.588;49.684;2023-08-12T02:54:28;12.00;;;2.80;;
60370;SDS011;48550;40.588;49.684;2023-08-12T02:56:54;8.90;;;2.70;;
60370;SDS011;48550;40.588;49.684;2023-08-12T02:59:20;7.63;;;3.10;;
60370;SDS011;48550;40.588;49.684;2023-08-12T03:01:45;7.22;;;2.80;;
60370;SDS011;48550;40.588;49.684;2023-08-12T03:04:11;8.05;;;2.80;;
60370;SDS011;48550;40.588;49.684;2023-08-12T03:06:37;10.20;;;2.67;;
60370;SDS011;48550;40.588;49.684;2023-08-12T03:09:02;9.85;;;2.95;;
60370;SDS011;48550;40.588;49.684;2023-08-12T03:11:28;7.60;;;2.55;;
60370;SDS011;48550;40.588;49.684;2023-08-12T03:13:54;7.15;;;2.70;;
60370;SDS011;48550;40.588;49.684;2023-08-12T03:16:20;6.65;;;3.28;;
60370;SDS011;48550;40.588;49.684;2023-08-12T03:18:45;7.05;;;2.90;;
60370;SDS011;48550;40.588;49.684;2023-08-12T03:21:11;6.75;;;2.55;;
60370;SDS011;48550;40.588;49.684;2023-08-12T03:23:37;8.50;;;2.13;;
60370;SDS011;48550;40.588;49.684;2023-08-12T03:26:03;9.18;;;2.55;;
60370;SDS011;48550;40.588;49.684;2023-08-12T03:28:30;7.60;;;2.53;;
60370;SDS011;48550;40.588;49.684;2023-08-12T03:30:56;5.72;;;2.25;;
60370;SDS011;48550;40.588;49.684;2023-08-12T03:33:22;6.57;;;2.25;;
60370;SDS011;48550;40.588;49.684;2023-08-12T03:35:48;4.78;;;2.08;;
60370;SDS011;48550;40.588;49.684;2023-08-12T03:38:14;9.23;;;2.30;;
60370;SDS011;48550;40.588;49.684;2023-08-12T03:40:41;6.65;;;2.50;;
60370;SDS011;48550;40.588;49.684;2023-08-12T03:43:07;7.55;;;2.95;;
60370;SDS011;48550;40.588;49.684;2023-08-12T03:45:40;6.18;;;2.70;;
60370;SDS011;48550;40.588;49.684;2023-08-12T03:48:09;6.93;;;2.40;;
60370;SDS011;48550;40.588;49.684;2023-08-12T03:50:35;4.93;;;2.40;;
60370;SDS011;48550;40.588;49.684;2023-08-12T03:53:01;6.53;;;2.78;;
60370;SDS011;48550;40.588;49.684;2023-08-12T03:55:30;12.55;;;2.28;;
60370;SDS011;48550;40.588;49.684;2023-08-12T03:57:57;5.40;;;2.40;;
60370;SDS011;48550;40.588;49.684;2023-08-12T04:00:26;8.75;;;2.47;;
60370;SDS011;48550;40.588;49.684;2023-08-12T04:02:53;8.35;;;2.70;;
60370;SDS011;48550;40.588;49.684;2023-08-12T04:05:19;21.33;;;3.65;;
60370;SDS011;48550;40.588;49.684;2023-08-12T04:07:45;7.68;;;2.42;;
60370;SDS011;48550;40.588;49.684;2023-08-12T04:10:10;9.52;;;2.70;;
60370;SDS011;48550;40.588;49.684;2023-08-12T04:12:36;11.30;;;3.00;;
60370;SDS011;48550;40.588;49.684;2023-08-12T04:15:03;9.63;;;2.90;;
60370;SDS011;48550;40.588;49.684;2023-08-12T04:17:31;13.77;;;3.45;;
60370;SDS011;48550;40.588;49.684;2023-08-12T04:19:57;14.10;;;3.63;;
60370;SDS011;48550;40.588;49.684;2023-08-12T04:22:22;16.30;;;4.05;;
60370;SDS011;48550;40.588;49.684;2023-08-12T04:24:48;12.57;;;3.85;;
60370;SDS011;48550;40.588;49.684;2023-08-12T04:27:14;15.25;;;5.05;;
60370;SDS011;48550;40.588;49.684;2023-08-12T04:29:41;13.13;;;5.07;;
60370;SDS011;48550;40.588;49.684;2023-08-12T04:32:07;13.57;;;6.20;;
60370;SDS011;48550;40.588;49.684;2023-08-12T04:34:33;13.07;;;6.60;;
60370;SDS011;48550;40.588;49.684;2023-08-12T04:36:59;16.17;;;6.05;;
60370;SDS011;48550;40.588;49.684;2023-08-12T04:39:25;14.50;;;5.47;;
60370;SDS011;48550;40.588;49.684;2023-08-12T04:41:50;12.25;;;4.80;;
60370;SDS011;48550;40.588;49.684;2023-08-12T04:44:16;14.50;;;4.75;;
60370;SDS011;48550;40.588;49.684;2023-08-12T04:46:42;15.40;;;4.30;;
60370;SDS011;48550;40.588;49.684;2023-08-12T04:49:07;10.63;;;3.45;;
60370;SDS011;48550;40.588;49.684;2023-08-12T04:51:33;11.38;;;3.97;;
60370;SDS011;48550;40.588;49.684;2023-08-12T04:53:59;9.25;;;3.90;;
60370;SDS011;48550;40.588;49.684;2023-08-12T04:56:27;9.52;;;3.60;;
60370;SDS011;48550;40.588;49.684;2023-08-12T04:58:56;15.38;;;3.15;;
60370;SDS011;48550;40.588;49.684;2023-08-12T05:01:21;12.90;;;3.08;;
60370;SDS011;48550;40.588;49.684;2023-08-12T05:03:47;9.73;;;3.30;;
60370;SDS011;48550;40.588;49.684;2023-08-12T05:06:13;10.07;;;3.30;;
60370;SDS011;48550;40.588;49.684;2023-08-12T05:08:38;10.18;;;2.83;;
60370;SDS011;48550;40.588;49.684;2023-08-12T05:11:04;12.23;;;3.60;;
60370;SDS011;48550;40.588;49.684;2023-08-12T05:13:30;13.48;;;3.10;;
60370;SDS011;48550;40.588;49.684;2023-08-12T05:15:55;11.27;;;6.53;;
60370;SDS011;48550;40.588;49.684;2023-08-12T05:18:22;6.95;;;2.80;;
60370;SDS011;48550;40.588;49.684;2023-08-12T05:20:52;12.38;;;2.97;;
60370;SDS011;48550;40.588;49.684;2023-08-12T05:23:19;14.63;;;3.47;;
60370;SDS011;48550;40.588;49.684;2023-08-12T05:25:45;7.97;;;2.83;;
60370;SDS011;48550;40.588;49.684;2023-08-12T05:28:11;10.05;;;2.78;;
60370;SDS011;48550;40.588;49.684;2023-08-12T05:30:37;7.97;;;2.90;;
60370;SDS011;48550;40.588;49.684;2023-08-12T05:33:04;10.02;;;2.90;;
60370;SDS011;48550;40.588;49.684;2023-08-12T05:35:33;10.45;;;2.70;;
60370;SDS011;48550;40.588;49.684;2023-08-12T05:37:59;11.35;;;2.67;;
60370;SDS011;48550;40.588;49.684;2023-08-12T05:40:25;10.85;;;4.50;;
60370;SDS011;48550;40.588;49.684;2023-08-12T05:42:51;15.93;;;3.15;;
60370;SDS011;48550;40.588;49.684;2023-08-12T05:45:16;13.85;;;3.13;;
60370;SDS011;48550;40.588;49.684;2023-08-12T05:47:42;13.52;;;2.92;;
60370;SDS011;48550;40.588;49.684;2023-08-12T05:50:08;11.30;;;3.33;;
60370;SDS011;48550;40.588;49.684;2023-08-12T05:52:34;10.32;;;3.90;;
60370;SDS011;48550;40.588;49.684;2023-08-12T05:54:59;14.73;;;3.35;;
60370;SDS011;48550;40.588;49.684;2023-08-12T05:57:25;14.23;;;3.78;;
60370;SDS011;48550;40.588;49.684;2023-08-12T05:59:51;18.48;;;4.05;;
60370;SDS011;48550;40.588;49.684;2023-08-12T06:02:17;17.52;;;3.85;;
60370;SDS011;48550;40.588;49.684;2023-08-12T06:04:43;21.42;;;4.20;;
60370;SDS011;48550;40.588;49.684;2023-08-12T06:07:09;21.20;;;5.38;;
60370;SDS011;48550;40.588;49.684;2023-08-12T06:09:35;19.08;;;4.57;;
60370;SDS011;48550;40.588;49.684;2023-08-12T06:12:00;38.88;;;6.07;;
60370;SDS011;48550;40.588;49.684;2023-08-12T06:14:26;23.13;;;4.78;;
60370;SDS011;48550;40.588;49.684;2023-08-12T06:16:52;25.42;;;4.45;;
60370;SDS011;48550;40.588;49.684;2023-08-12T06:19:17;27.92;;;5.30;;
60370;SDS011;48550;40.588;49.684;2023-08-12T06:21:43;30.95;;;4.88;;
60370;SDS011;48550;40.588;49.684;2023-08-12T06:24:09;34.25;;;6.07;;
60370;SDS011;48550;40.588;49.684;2023-08-12T06:26:34;32.47;;;5.43;;
60370;SDS011;48550;40.588;49.684;2023-08-12T06:29:00;38.65;;;6.32;;
60370;SDS011;48550;40.588;49.684;2023-08-12T06:31:26;32.85;;;5.80;;
60370;SDS011;48550;40.588;49.684;2023-08-12T06:33:51;36.08;;;5.53;;
60370;SDS011;48550;40.588;49.684;2023-08-12T06:36:17;42.00;;;6.20;;
60370;SDS011;48550;40.588;49.684;2023-08-12T06:38:43;46.75;;;6.53;;
60370;SDS011;48550;40.588;49.684;2023-08-12T06:41:08;31.13;;;5.35;;
60370;SDS011;48550;40.588;49.684;2023-08-12T06:43:34;38.25;;;4.90;;
60370;SDS011;48550;40.588;49.684;2023-08-12T06:46:00;45.28;;;5.80;;
60370;SDS011;48550;40.588;49.684;2023-08-12T06:48:26;32.15;;;5.72;;
60370;SDS011;48550;40.588;49.684;2023-08-12T06:50:55;38.92;;;6.28;;
60370;SDS011;48550;40.588;49.684;2023-08-12T06:53:21;31.03;;;5.23;;
60370;SDS011;48550;40.588;49.684;2023-08-12T06:55:47;21.38;;;4.80;;
60370;SDS011;48550;40.588;49.684;2023-08-12T06:58:13;32.42;;;5.63;;
60370;SDS011;48550;40.588;49.684;2023-08-12T07:00:40;33.63;;;5.43;;
60370;SDS011;48550;40.588;49.684;2023-08-12T07:03:05;27.65;;;4.65;;
60370;SDS011;48550;40.588;49.684;2023-08-12T07:05:31;23.98;;;4.47;;
60370;SDS011;48550;40.588;49.684;2023-08-12T07:07:57;30.38;;;5.90;;
60370;SDS011;48550;40.588;49.684;2023-08-12T07:10:22;29.60;;;5.75;;
60370;SDS011;48550;40.588;49.684;2023-08-12T07:12:48;26.63;;;4.40;;
60370;SDS011;48550;40.588;49.684;2023-08-12T07:15:14;22.02;;;4.47;;
60370;SDS011;48550;40.588;49.684;2023-08-12T07:17:39;22.88;;;4.50;;
60370;SDS011;48550;40.588;49.684;2023-08-12T07:20:05;35.85;;;5.20;;
60370;SDS011;48550;40.588;49.684;2023-08-12T07:22:31;20.08;;;4.40;;
60370;SDS011;48550;40.588;49.684;2023-08-12T07:24:57;22.85;;;3.90;;
60370;SDS011;48550;40.588;49.684;2023-08-12T07:27:25;23.45;;;4.68;;
60370;SDS011;48550;40.588;49.684;2023-08-12T07:29:52;25.35;;;4.43;;
60370;SDS011;48550;40.588;49.684;2023-08-12T07:32:17;24.58;;;4.30;;
60370;SDS011;48550;40.588;49.684;2023-08-12T07:34:44;18.67;;;3.45;;
60370;SDS011;48550;40.588;49.684;2023-08-12T07:37:10;29.63;;;5.40;;
60370;SDS011;48550;40.588;49.684;2023-08-12T07:39:36;30.73;;;5.40;;
60370;SDS011;48550;40.588;49.684;2023-08-12T07:42:02;20.00;;;3.63;;
60370;SDS011;48550;40.588;49.684;2023-08-12T07:44:28;19.30;;;4.47;;
60370;SDS011;48550;40.588;49.684;2023-08-12T07:46:54;23.25;;;5.13;;
60370;SDS011;48550;40.588;49.684;2023-08-12T07:49:20;21.88;;;3.72;;
60370;SDS011;48550;40.588;49.684;2023-08-12T07:51:46;24.60;;;4.68;;
60370;SDS011;48550;40.588;49.684;2023-08-12T07:54:12;21.88;;;4.32;;
60370;SDS011;48550;40.588;49.684;2023-08-12T07:56:37;15.60;;;3.47;;
60370;SDS011;48550;40.588;49.684;2023-08-12T07:59:03;23.90;;;3.67;;
60370;SDS011;48550;40.588;49.684;2023-08-12T08:01:29;10.00;;;3.58;;
60370;SDS011;48550;40.588;49.684;2023-08-12T08:03:55;16.67;;;3.65;;
60370;SDS011;48550;40.588;49.684;2023-08-12T08:06:21;24.08;;;3.85;;
60370;SDS011;48550;40.588;49.684;2023-08-12T08:08:49;24.85;;;4.07;;
60370;SDS011;48550;40.588;49.684;2023-08-12T08:11:14;22.63;;;4.75;;
60370;SDS011;48550;40.588;49.684;2023-08-12T08:13:40;17.55;;;4.38;;
60370;SDS011;48550;40.588;49.684;2023-08-12T08:16:06;16.63;;;3.80;;
60370;SDS011;48550;40.588;49.684;2023-08-12T08:18:31;22.55;;;4.28;;
60370;SDS011;48550;40.588;49.684;2023-08-12T08:20:57;18.67;;;3.53;;
60370;SDS011;48550;40.588;49.684;2023-08-12T08:23:23;23.23;;;4.22;;
60370;SDS011;48550;40.588;49.684;2023-08-12T08:25:49;16.27;;;3.72;;
60370;SDS011;48550;40.588;49.684;2023-08-12T08:28:14;22.73;;;4.32;;
60370;SDS011;48550;40.588;49.684;2023-08-12T08:30:40;24.40;;;4.78;;
60370;SDS011;48550;40.588;49.684;2023-08-12T08:33:06;20.67;;;3.70;;
60370;SDS011;48550;40.588;49.684;2023-08-12T08:35:33;18.15;;;3.80;;
60370;SDS011;48550;40.588;49.684;2023-08-12T08:37:59;15.35;;;3.90;;
60370;SDS011;48550;40.588;49.684;2023-08-12T08:40:25;27.02;;;4.68;;
60370;SDS011;48550;40.588;49.684;2023-08-12T08:42:52;18.05;;;4.07;;
60370;SDS011;48550;40.588;49.684;2023-08-12T08:45:22;17.55;;;4.43;;
60370;SDS011;48550;40.588;49.684;2023-08-12T08:47:51;15.57;;;3.78;;
60370;SDS011;48550;40.588;49.684;2023-08-12T08:50:17;19.05;;;3.58;;
60370;SDS011;48550;40.588;49.684;2023-08-12T08:52:43;20.42;;;3.97;;
60370;SDS011;48550;40.588;49.684;2023-08-12T08:55:10;15.27;;;4.10;;
60370;SDS011;48550;40.588;49.684;2023-08-12T08:57:37;15.65;;;4.43;;
60370;SDS011;48550;40.588;49.684;2023-08-12T09:00:04;16.63;;;3.72;;
60370;SDS011;48550;40.588;49.684;2023-08-12T09:02:36;16.17;;;3.70;;
60370;SDS011;48550;40.588;49.684;2023-08-12T09:05:02;16.55;;;3.50;;
60370;SDS011;48550;40.588;49.684;2023-08-12T09:07:29;19.80;;;3.47;;
60370;SDS011;48550;40.588;49.684;2023-08-12T09:09:56;19.25;;;3.72;;
60370;SDS011;48550;40.588;49.684;2023-08-12T09:12:23;23.38;;;3.35;;
60370;SDS011;48550;40.588;49.684;2023-08-12T09:14:50;14.07;;;3.58;;
60370;SDS011;48550;40.588;49.684;2023-08-12T09:17:15;16.30;;;3.50;;
60370;SDS011;48550;40.588;49.684;2023-08-12T09:19:41;15.35;;;4.03;;
60370;SDS011;48550;40.588;49.684;2023-08-12T09:22:07;20.08;;;4.45;;
60370;SDS011;48550;40.588;49.684;2023-08-12T09:24:36;15.15;;;3.65;;
60370;SDS011;48550;40.588;49.684;2023-08-12T09:27:02;19.70;;;3.83;;
60370;SDS011;48550;40.588;49.684;2023-08-12T09:29:32;17.13;;;3.70;;
60370;SDS011;48550;40.588;49.684;2023-08-12T09:32:11;16.48;;;3.70;;
60370;SDS011;48550;40.588;49.684;2023-08-12T09:34:45;18.83;;;4.30;;
60370;SDS011;48550;40.588;49.684;2023-08-12T09:37:21;13.10;;;3.75;;
60370;SDS011;48550;40.588;49.684;2023-08-12T09:39:49;22.65;;;3.60;;
60370;SDS011;48550;40.588;49.684;2023-08-12T09:42:16;15.85;;;3.42;;
60370;SDS011;48550;40.588;49.684;2023-08-12T09:44:42;20.25;;;4.22;;
60370;SDS011;48550;40.588;49.684;2023-08-12T09:47:08;14.10;;;3.78;;
60370;SDS011;48550;40.588;49.684;2023-08-12T09:49:35;13.80;;;3.95;;
60370;SDS011;48550;40.588;49.684;2023-08-12T09:52:01;21.30;;;4.18;;
60370;SDS011;48550;40.588;49.684;2023-08-12T09:54:28;18.60;;;3.70;;
60370;SDS011;48550;40.588;49.684;2023-08-12T09:56:58;16.45;;;4.32;;
60370;SDS011;48550;40.588;49.684;2023-08-12T09:59:27;16.90;;;3.83;;
60370;SDS011;48550;40.588;49.684;2023-08-12T10:01:57;13.07;;;3.60;;
60370;SDS011;48550;40.588;49.684;2023-08-12T10:04:25;13.82;;;4.07;;
60370;SDS011;48550;40.588;49.684;2023-08-12T10:06:54;17.67;;;5.18;;
60370;SDS011;48550;40.588;49.684;2023-08-12T10:09:19;16.83;;;3.90;;
60370;SDS011;48550;40.588;49.684;2023-08-12T10:11:46;19.27;;;4.20;;
60370;SDS011;48550;40.588;49.684;2023-08-12T10:14:13;13.82;;;3.90;;
60370;SDS011;48550;40.588;49.684;2023-08-12T10:16:39;13.73;;;4.97;;
60370;SDS011;48550;40.588;49.684;2023-08-12T10:21:36;12.73;;;4.10;;
60370;SDS011;48550;40.588;49.684;2023-08-12T10:24:05;16.30;;;4.55;;
60370;SDS011;48550;40.588;49.684;2023-08-12T10:26:32;12.65;;;4.40;;
60370;SDS011;48550;40.588;49.684;2023-08-12T10:28:59;11.48;;;3.97;;
60370;SDS011;48550;40.588;49.684;2023-08-12T10:31:26;12.48;;;4.10;;
60370;SDS011;48550;40.588;49.684;2023-08-12T10:33:56;14.85;;;4.03;;
60370;SDS011;48550;40.588;49.684;2023-08-12T10:36:22;18.38;;;4.82;;
60370;SDS011;48550;40.588;49.684;2023-08-12T10:38:48;10.90;;;3.90;;
60370;SDS011;48550;40.588;49.684;2023-08-12T10:41:21;13.68;;;4.47;;
60370;SDS011;48550;40.588;49.684;2023-08-12T10:43:55;14.45;;;4.47;;
60370;SDS011;48550;40.588;49.684;2023-08-12T10:49:04;15.80;;;4.35;;
60370;SDS011;48550;40.588;49.684;2023-08-12T10:54:10;15.73;;;4.60;;
60370;SDS011;48550;40.588;49.684;2023-08-12T10:59:49;29.02;;;5.05;;
60370;SDS011;48550;40.588;49.684;2023-08-12T11:02:37;14.45;;;4.00;;
60370;SDS011;48550;40.588;49.684;2023-08-12T11:05:09;14.43;;;3.78;;
60370;SDS011;48550;40.588;49.684;2023-08-12T11:07:40;16.92;;;4.20;;
60370;SDS011;48550;40.588;49.684;2023-08-12T11:10:22;14.85;;;4.07;;
60370;SDS011;48550;40.588;49.684;2023-08-12T11:18:05;17.10;;;4.53;;
60370;SDS011;48550;40.588;49.684;2023-08-12T11:20:37;23.10;;;4.13;;
60370;SDS011;48550;40.588;49.684;2023-08-12T11:23:04;15.88;;;4.55;;
60370;SDS011;48550;40.588;49.684;2023-08-12T11:25:30;18.25;;;4.78;;
60370;SDS011;48550;40.588;49.684;2023-08-12T11:27:57;22.58;;;4.45;;
60370;SDS011;48550;40.588;49.684;2023-08-12T11:30:23;15.05;;;4.15;;
60370;SDS011;48550;40.588;49.684;2023-08-12T11:32:50;15.40;;;4.43;;
60370;SDS011;48550;40.588;49.684;2023-08-12T11:35:17;14.82;;;4.13;;
60370;SDS011;48550;40.588;49.684;2023-08-12T11:37:45;19.25;;;4.90;;
60370;SDS011;48550;40.588;49.684;2023-08-12T11:40:13;19.55;;;5.20;;
60370;SDS011;48550;40.588;49.684;2023-08-12T11:42:42;21.40;;;5.22;;
60370;SDS011;48550;40.588;49.684;2023-08-12T11:45:09;29.13;;;4.95;;
60370;SDS011;48550;40.588;49.684;2023-08-12T11:47:36;24.85;;;5.43;;
60370;SDS011;48550;40.588;49.684;2023-08-12T11:50:10;25.60;;;5.07;;
60370;SDS011;48550;40.588;49.684;2023-08-12T11:52:37;29.67;;;5.32;;
60370;SDS011;48550;40.588;49.684;2023-08-12T11:55:04;24.83;;;4.90;;
60370;SDS011;48550;40.588;49.684;2023-08-12T11:57:31;37.35;;;6.63;;
60370;SDS011;48550;40.588;49.684;2023-08-12T12:00:03;33.23;;;6.87;;
60370;SDS011;48550;40.588;49.684;2023-08-12T12:02:39;42.60;;;7.05;;
60370;SDS011;48550;40.588;49.684;2023-08-12T12:05:12;64.57;;;7.25;;
60370;SDS011;48550;40.588;49.684;2023-08-12T12:07:39;43.90;;;8.13;;
60370;SDS011;48550;40.588;49.684;2023-08-12T12:10:05;39.30;;;6.70;;
60370;SDS011;48550;40.588;49.684;2023-08-12T12:12:35;42.00;;;7.00;;
60370;SDS011;48550;40.588;49.684;2023-08-12T12:15:02;51.03;;;9.77;;
60370;SDS011;48550;40.588;49.684;2023-08-12T12:17:28;40.38;;;7.75;;
60370;SDS011;48550;40.588;49.684;2023-08-12T12:19:58;49.22;;;8.02;;
60370;SDS011;48550;40.588;49.684;2023-08-12T12:22:31;46.10;;;8.03;;
60370;SDS011;48550;40.588;49.684;2023-08-12T12:24:58;37.88;;;7.68;;
60370;SDS011;48550;40.588;49.684;2023-08-12T12:27:25;50.35;;;8.73;;
60370;SDS011;48550;40.588;49.684;2023-08-12T12:29:51;58.78;;;9.10;;
60370;SDS011;48550;40.588;49.684;2023-08-12T12:32:18;41.08;;;8.85;;
60370;SDS011;48550;40.588;49.684;2023-08-12T12:34:45;48.53;;;7.53;;
60370;SDS011;48550;40.588;49.684;2023-08-12T12:37:11;53.60;;;8.13;;
60370;SDS011;48550;40.588;49.684;2023-08-12T12:39:38;47.13;;;7.80;;
60370;SDS011;48550;40.588;49.684;2023-08-12T12:42:04;44.75;;;9.18;;
60370;SDS011;48550;40.588;49.684;2023-08-12T12:44:30;45.67;;;7.53;;
60370;SDS011;48550;40.588;49.684;2023-08-12T12:46:56;47.03;;;8.48;;
60370;SDS011;48550;40.588;49.684;2023-08-12T12:49:22;59.38;;;8.45;;
60370;SDS011;48550;40.588;49.684;2023-08-12T12:51:48;54.30;;;11.77;;
60370;SDS011;48550;40.588;49.684;2023-08-12T12:54:14;54.88;;;8.48;;
60370;SDS011;48550;40.588;49.684;2023-08-12T12:56:39;52.63;;;8.05;;
60370;SDS011;48550;40.588;49.684;2023-08-12T12:59:05;48.13;;;8.20;;
60370;SDS011;48550;40.588;49.684;2023-08-12T13:01:31;36.53;;;6.88;;
60370;SDS011;48550;40.588;49.684;2023-08-12T13:03:57;40.47;;;6.72;;
60370;SDS011;48550;40.588;49.684;2023-08-12T13:06:22;40.45;;;6.40;;
60370;SDS011;48550;40.588;49.684;2023-08-12T13:08:48;33.42;;;6.43;;
60370;SDS011;48550;40.588;49.684;2023-08-12T13:11:15;34.17;;;7.70;;
60370;SDS011;48550;40.588;49.684;2023-08-12T13:13:41;41.00;;;6.82;;
60370;SDS011;48550;40.588;49.684;2023-08-12T13:16:07;34.58;;;7.63;;
60370;SDS011;48550;40.588;49.684;2023-08-12T13:18:33;39.58;;;7.72;;
60370;SDS011;48550;40.588;49.684;2023-08-12T13:20:59;34.35;;;7.50;;
60370;SDS011;48550;40.588;49.684;2023-08-12T13:23:25;50.78;;;6.60;;
60370;SDS011;48550;40.588;49.684;2023-08-12T13:25:51;33.38;;;7.03;;
60370;SDS011;48550;40.588;49.684;2023-08-12T13:28:17;34.55;;;6.43;;
60370;SDS011;48550;40.588;49.684;2023-08-12T13:30:43;33.22;;;6.45;;
60370;SDS011;48550;40.588;49.684;2023-08-12T13:33:09;39.38;;;6.70;;
60370;SDS011;48550;40.588;49.684;2023-08-12T13:35:35;43.28;;;6.78;;
60370;SDS011;48550;40.588;49.684;2023-08-12T13:38:01;33.72;;;6.85;;
60370;SDS011;48550;40.588;49.684;2023-08-12T13:40:26;42.00;;;6.85;;
60370;SDS011;48550;40.588;49.684;2023-08-12T13:42:52;22.85;;;5.30;;
60370;SDS011;48550;40.588;49.684;2023-08-12T13:45:18;28.98;;;6.38;;
60370;SDS011;48550;40.588;49.684;2023-08-12T13:47:44;22.70;;;5.05;;
60370;SDS011;48550;40.588;49.684;2023-08-12T13:50:10;30.92;;;5.97;;
60370;SDS011;48550;40.588;49.684;2023-08-12T13:52:36;41.53;;;5.65;;
60370;SDS011;48550;40.588;49.684;2023-08-12T13:55:02;36.53;;;6.15;;
60370;SDS011;48550;40.588;49.684;2023-08-12T13:57:29;40.97;;;6.40;;
60370;SDS011;48550;40.588;49.684;2023-08-12T13:59:56;27.83;;;5.25;;
60370;SDS011;48550;40.588;49.684;2023-08-12T14:02:21;35.53;;;6.20;;
60370;SDS011;48550;40.588;49.684;2023-08-12T14:04:48;34.55;;;7.10;;
60370;SDS011;48550;40.588;49.684;2023-08-12T14:07:14;36.22;;;5.97;;
60370;SDS011;48550;40.588;49.684;2023-08-12T14:09:40;24.30;;;5.25;;
60370;SDS011;48550;40.588;49.684;2023-08-12T14:12:06;30.30;;;5.53;;
60370;SDS011;48550;40.588;49.684;2023-08-12T14:14:32;24.52;;;5.70;;
60370;SDS011;48550;40.588;49.684;2023-08-12T14:16:58;31.27;;;5.40;;
60370;SDS011;48550;40.588;49.684;2023-08-12T14:19:24;26.48;;;4.85;;
60370;SDS011;48550;40.588;49.684;2023-08-12T14:21:50;27.02;;;4.90;;
60370;SDS011;48550;40.588;49.684;2023-08-12T14:24:15;20.33;;;5.53;;
60370;SDS011;48550;40.588;49.684;2023-08-12T14:26:41;25.48;;;5.00;;
60370;SDS011;48550;40.588;49.684;2023-08-12T14:29:07;19.20;;;4.13;;
60370;SDS011;48550;40.588;49.684;2023-08-12T14:31:33;19.25;;;4.53;;
60370;SDS011;48550;40.588;49.684;2023-08-12T14:33:59;14.57;;;3.63;;
60370;SDS011;48550;40.588;49.684;2023-08-12T14:36:26;13.73;;;3.40;;
60370;SDS011;48550;40.588;49.684;2023-08-12T14:38:52;15.15;;;3.20;;
60370;SDS011;48550;40.588;49.684;2023-08-12T14:41:17;15.55;;;4.35;;